Time;durP1;ratioP1;P1;durP2;ratioP2;P2;SDS_P1;SDS_P2;PMS_P1;PMS_P2;Temp;Humidity;BMP_temperature;BMP_pressure;BME280_temperature;BME280_humidity;BME280_pressure;Samples;Min_cycle;Max_cycle;Signal;HPM_P1;HPM_P2
2024/04/12 00:04:20;;;;;;;18.10;10.60;;;;;;;13.06;61.05;100517.44;232689;203;137998;-56
2024/04/12 00:09:24;;;;;;;16.80;10.20;;;;;;;12.98;61.15;100514.79;232833;203;152005;-57
2024/04/12 00:14:27;;;;;;;19.60;11.10;;;;;;;12.92;61.50;100513.80;232677;203;138063;-57
2024/04/12 00:19:30;;;;;;;23.90;12.80;;;;;;;12.90;61.61;100515.73;232565;206;138591;-58
2024/04/12 00:24:36;;;;;;;20.20;12.20;;;;;;;12.87;61.79;100511.92;232688;203;152064;-57
2024/04/12 00:29:39;;;;;;;20.40;13.50;;;;;;;12.86;61.98;100507.33;232701;206;138209;-57
2024/04/12 00:34:51;;;;;;;22.00;12.60;;;;;;;12.80;62.30;100501.77;232721;199;138077;-56
2024/04/12 00:39:54;;;;;;;21.50;12.80;;;;;;;12.76;62.78;100498.40;232833;207;152356;-57
2024/04/12 00:44:58;;;;;;;24.90;12.40;;;;;;;12.71;62.86;100497.20;232674;199;137066;-57
2024/04/12 00:50:03;;;;;;;25.60;13.30;;;;;;;12.66;62.92;100499.92;232687;206;137179;-56
2024/04/12 00:55:07;;;;;;;20.70;12.40;;;;;;;12.61;63.03;100502.31;232632;206;151131;-56
2024/04/12 01:00:16;;;;;;;24.80;12.80;;;;;;;12.53;62.95;100496.64;232670;202;138939;-57
2024/04/12 01:05:19;;;;;;;21.90;13.50;;;;;;;12.44;62.95;100494.36;232669;206;137428;-56
2024/04/12 01:10:24;;;;;;;25.80;13.30;;;;;;;12.36;63.11;100503.30;232644;203;151834;-57
2024/04/12 01:15:37;;;;;;;21.30;13.40;;;;;;;12.29;63.28;100504.84;232824;203;138209;-56
2024/04/12 01:20:43;;;;;;;21.40;12.80;;;;;;;12.22;63.50;100505.88;232736;203;137887;-57
2024/04/12 01:25:47;;;;;;;24.60;14.20;;;;;;;12.13;63.49;100506.61;232666;203;151520;-57
2024/04/12 01:30:56;;;;;;;27.80;15.40;;;;;;;12.05;63.96;100508.05;232684;203;138389;-56
2024/04/12 01:36:10;;;;;;;28.80;16.00;;;;;;;12.01;64.25;100509.48;232689;203;139610;-56
2024/04/12 01:41:14;;;;;;;23.40;16.30;;;;;;;11.97;64.64;100507.56;232723;203;151452;-57
2024/04/12 01:46:17;;;;;;;32.30;16.70;;;;;;;11.93;64.84;100506.85;232686;203;138145;-57
2024/04/12 01:51:24;;;;;;;29.40;17.60;;;;;;;11.88;65.10;100509.02;232894;206;138419;-56
2024/04/12 01:56:27;;;;;;;30.10;18.00;;;;;;;11.88;65.28;100506.53;232667;202;151413;-56
2024/04/12 02:01:33;;;;;;;32.40;17.60;;;;;;;11.92;65.28;100508.84;232663;203;137382;-55
2024/04/12 02:06:42;;;;;;;28.80;16.30;;;;;;;11.97;65.29;100510.52;232612;203;138070;-54
2024/04/12 02:11:46;;;;;;;27.80;16.20;;;;;;;12.03;64.85;100513.50;232685;202;151465;-56
2024/04/12 02:16:50;;;;;;;25.50;14.50;;;;;;;12.05;64.65;100510.92;232539;204;137959;-57
2024/04/12 02:21:54;;;;;;;26.40;16.00;;;;;;;12.11;64.32;100513.13;232824;206;137438;-57
2024/04/12 02:26:57;;;;;;;27.10;15.50;;;;;;;12.09;64.20;100509.48;232702;203;153136;-58
2024/04/12 02:32:00;;;;;;;31.70;15.80;;;;;;;12.08;64.09;100509.52;232676;203;138202;-55
2024/04/12 02:37:04;;;;;;;25.60;16.00;;;;;;;12.05;64.22;100510.73;232691;206;138115;-55
2024/04/12 02:42:07;;;;;;;30.30;17.20;;;;;;;12.02;64.15;100510.50;232601;203;151404;-55
2024/04/12 02:47:13;;;;;;;29.10;17.60;;;;;;;11.98;64.43;100507.47;232669;203;138752;-55
2024/04/12 02:52:17;;;;;;;28.50;16.90;;;;;;;11.92;64.53;100505.98;232800;203;137387;-58
2024/04/12 02:57:21;;;;;;;29.50;17.20;;;;;;;11.85;64.83;100500.92;232825;203;151051;-60
2024/04/12 03:02:26;;;;;;;29.60;18.20;;;;;;;11.79;64.93;100509.70;232603;203;137702;-58
2024/04/12 03:07:33;;;;;;;26.20;17.40;;;;;;;11.73;64.99;100515.48;232589;199;136916;-57
2024/04/12 03:12:36;;;;;;;29.40;16.50;;;;;;;11.67;65.09;100518.77;232701;202;151361;-57
2024/04/12 03:17:42;;;;;;;34.50;16.20;;;;;;;11.59;65.15;100524.95;232672;202;138173;-57
2024/04/12 03:22:45;;;;;;;27.20;15.30;;;;;;;11.53;65.27;100526.27;232689;206;137900;-58
2024/04/12 03:27:49;;;;;;;26.20;15.20;;;;;;;11.48;65.22;100526.88;232833;203;151234;-57
2024/04/12 03:33:02;;;;;;;30.90;15.20;;;;;;;11.46;65.09;100524.45;232716;203;137179;-58
2024/04/12 03:38:26;;;;;;;25.70;15.60;;;;;;;11.42;65.13;100520.55;232698;207;138013;-58
2024/04/12 03:43:29;;;;;;;26.10;16.10;;;;;;;11.35;65.32;100527.75;232640;207;151165;-43
2024/04/12 03:48:33;;;;;;;123.40;95.70;;;;;;;11.39;66.45;100530.09;232684;199;137746;-59
2024/04/12 03:53:36;;;;;;;33.30;18.00;;;;;;;11.34;65.90;100532.05;232718;203;138767;-58
2024/04/12 03:58:41;;;;;;;49.50;31.10;;;;;;;11.24;66.12;100535.48;232692;207;152484;-58
2024/04/12 04:03:49;;;;;;;30.70;16.40;;;;;;;11.24;66.46;100536.55;232783;206;137576;-56
2024/04/12 04:08:52;;;;;;;37.20;17.30;;;;;;;11.26;66.28;100531.83;232666;206;137713;-58
2024/04/12 04:13:55;;;;;;;29.80;17.70;;;;;;;11.31;66.17;100536.45;232683;206;151078;-58
2024/04/12 04:18:58;;;;;;;29.60;16.30;;;;;;;11.33;66.11;100539.40;232240;203;139667;-58
2024/04/12 04:24:08;;;;;;;189.40;144.50;;;;;;;11.33;66.17;100541.16;232674;203;137930;-59
2024/04/12 04:29:11;;;;;;;33.70;20.50;;;;;;;11.44;66.68;100541.09;232637;206;151547;-55
2024/04/12 04:34:26;;;;;;;29.80;18.70;;;;;;;11.48;66.04;100543.39;232799;202;137934;-56
2024/04/12 04:39:29;;;;;;;31.10;17.80;;;;;;;11.49;65.91;100547.26;232810;207;138127;-56
2024/04/12 04:44:32;;;;;;;27.80;18.40;;;;;;;11.53;65.91;100548.66;232620;202;150461;-57
2024/04/12 04:49:35;;;;;;;139.80;106.10;;;;;;;11.59;65.87;100558.58;232615;206;137028;-59
2024/04/12 04:54:41;;;;;;;34.60;20.60;;;;;;;11.66;66.35;100558.64;232688;200;137435;-57
2024/04/12 04:59:44;;;;;;;34.00;19.60;;;;;;;11.70;65.83;100553.52;232575;206;151516;-55
2024/04/12 05:04:50;;;;;;;37.20;19.70;;;;;;;11.71;65.93;100563.06;232627;207;137920;-56
2024/04/12 05:09:53;;;;;;;132.30;108.40;;;;;;;11.75;65.86;100562.02;232764;206;137839;-58
2024/04/12 05:14:56;;;;;;;54.00;37.70;;;;;;;11.80;66.01;100564.61;232691;203;151879;-57
2024/04/12 05:20:20;;;;;;;27.00;16.40;;;;;;;11.87;65.68;100569.32;232528;206;138321;-57
2024/04/12 05:25:22;;;;;;;31.80;17.70;;;;;;;11.94;65.40;100570.27;232692;203;139199;-57
2024/04/12 05:30:25;;;;;;;37.40;17.90;;;;;;;12.06;65.19;100564.40;232669;207;151139;-58
2024/04/12 05:35:30;;;;;;;33.50;17.90;;;;;;;12.24;64.96;100560.08;232675;206;137087;-57
2024/04/12 05:40:41;;;;;;;31.50;17.50;;;;;;;12.39;64.50;100561.87;232555;206;138243;-56
2024/04/12 05:45:47;;;;;;;49.30;31.50;;;;;;;12.55;64.31;100564.72;232828;206;152001;-57
2024/04/12 05:50:53;;;;;;;35.20;18.90;;;;;;;12.67;64.29;100561.14;232641;206;137924;-56
2024/04/12 06:01:24;;;;;;;28.80;18.60;;;;;;;12.81;63.67;100564.79;232638;203;151214;-57
2024/04/12 06:06:31;;;;;;;30.40;18.40;;;;;;;12.90;63.57;100561.12;232636;203;137455;-57
2024/04/12 06:11:37;;;;;;;28.80;18.30;;;;;;;13.07;63.25;100553.73;232592;203;138282;-56
2024/04/12 06:16:40;;;;;;;;;;;;;;;13.19;62.96;100545.86;232609;206;151744;-56
2024/04/12 06:21:46;;;;;;;47.60;34.70;;;;;;;13.32;62.57;100539.55;232810;203;136133;-57
2024/04/12 06:26:50;;;;;;;36.90;21.70;;;;;;;13.49;62.29;100537.81;232727;206;138253;-56
2024/04/12 06:31:54;;;;;;;31.50;17.80;;;;;;;13.62;61.85;100529.32;232729;205;151800;-56
2024/04/12 06:36:57;;;;;;;31.30;18.70;;;;;;;13.73;60.94;100525.88;232673;202;139102;-58
2024/04/12 06:42:09;;;;;;;31.20;17.10;;;;;;;13.82;60.72;100527.39;232687;203;136968;-56
2024/04/12 06:47:18;;;;;;;26.20;16.90;;;;;;;13.95;60.69;100522.10;232678;205;151367;-57
2024/04/12 06:52:22;;;;;;;30.90;17.90;;;;;;;14.06;60.55;100521.32;232778;202;137885;-58
2024/04/12 06:57:25;;;;;;;33.20;18.10;;;;;;;14.19;60.08;100518.14;232861;205;137198;-58
2024/04/12 07:02:29;;;;;;;32.50;17.60;;;;;;;14.28;59.66;100518.00;232705;202;151726;-57
2024/04/12 07:07:37;;;;;;;26.30;16.50;;;;;;;14.38;59.58;100518.34;232720;205;138176;-57
2024/04/12 07:12:43;;;;;;;23.40;15.60;;;;;;;14.54;59.58;100511.66;232695;202;137609;-57
2024/04/12 07:17:47;;;;;;;26.20;15.10;;;;;;;14.68;58.93;100502.81;232717;205;151074;-57
2024/04/12 07:22:51;;;;;;;24.40;13.60;;;;;;;14.81;58.65;100498.38;232759;198;137828;-57
2024/04/12 07:27:54;;;;;;;37.10;18.90;;;;;;;14.95;58.65;100497.73;232902;202;136936;-44
2024/04/12 07:32:57;;;;;;;28.00;15.40;;;;;;;15.40;61.04;100498.72;232690;197;151845;-46
2024/04/12 07:38:00;;;;;;;31.70;13.20;;;;;;;16.06;60.20;100497.98;232722;202;138026;-45
2024/04/12 07:43:10;;;;;;;26.50;13.70;;;;;;;16.41;57.58;100504.64;232695;202;137641;-48
2024/04/12 07:53:34;;;;;;;20.50;12.20;;;;;;;16.88;56.30;100513.48;232663;201;138388;-51
2024/04/12 07:58:42;;;;;;;20.60;11.70;;;;;;;17.04;55.41;100506.73;232749;201;137948;-48
2024/04/12 08:03:50;;;;;;;;;;;;;;;17.15;53.89;100504.90;232825;205;151239;-57
2024/04/12 08:09:03;;;;;;;23.90;12.40;;;;;;;17.09;53.10;100503.32;232747;205;135201;-59
2024/04/12 08:14:20;;;;;;;25.70;14.10;;;;;;;17.07;53.26;100505.64;232666;202;137713;-43
2024/04/12 08:19:39;;;;;;;22.10;11.90;;;;;;;17.38;54.49;100492.79;232551;205;152181;-51
2024/04/12 08:24:44;;;;;;;18.70;10.70;;;;;;;17.58;52.92;100479.39;232674;201;137261;-51
2024/04/12 08:29:48;;;;;;;18.10;10.50;;;;;;;17.77;52.29;100474.92;232671;202;137952;-48
2024/04/12 08:34:55;;;;;;;20.20;9.80;;;;;;;17.97;51.71;100474.40;232683;205;152119;-49
2024/04/12 08:40:08;;;;;;;18.10;8.20;;;;;;;18.09;50.71;100471.63;232867;205;138202;-50
2024/04/12 08:45:17;;;;;;;12.50;8.20;;;;;;;18.29;50.75;100468.59;232662;202;138582;-47
2024/04/12 08:50:31;;;;;;;13.80;7.30;;;;;;;18.46;50.43;100472.58;232639;201;151267;-45
2024/04/12 08:55:35;;;;;;;11.90;7.30;;;;;;;18.59;48.62;100474.35;232635;202;138138;-44
2024/04/12 09:00:39;;;;;;;9.20;6.20;;;;;;;18.72;48.64;100472.70;232664;202;138078;-62
2024/04/12 09:05:45;;;;;;;14.60;7.10;;;;;;;18.81;45.95;100468.98;232664;203;152321;-49
2024/04/12 09:10:52;;;;;;;12.00;6.50;;;;;;;18.82;44.95;100469.46;232681;205;136696;-50
2024/04/12 09:15:58;;;;;;;15.30;8.20;;;;;;;18.89;45.68;100461.04;232835;197;137456;-47
2024/04/12 09:21:01;;;;;;;11.30;7.70;;;;;;;19.09;44.37;100457.56;232610;202;151474;-49
2024/04/12 09:26:24;;;;;;;13.70;8.20;;;;;;;19.19;43.70;100451.60;232609;201;137152;-50
2024/04/12 09:37:01;;;;;;;9.80;4.90;;;;;;;19.56;42.64;100441.55;232665;202;157883;-49
2024/04/12 09:42:12;;;;;;;;;;;;;;;19.54;41.24;100437.92;232574;205;138070;-48
2024/04/12 10:40:59;;;;;;;10.10;4.70;;;;;;;20.94;38.60;100362.56;232748;205;151186;-44
2024/04/12 10:46:04;;;;;;;12.50;4.40;;;;;;;21.15;38.88;100360.63;232870;202;137996;-45
2024/04/12 10:51:08;;;;;;;9.40;4.10;;;;;;;21.39;39.68;100354.61;232717;202;137378;-44
2024/04/12 10:56:18;;;;;;;11.20;3.80;;;;;;;21.58;38.27;100348.63;232738;205;151333;-43
2024/04/12 11:01:23;;;;;;;6.80;3.80;;;;;;;21.74;38.56;100335.70;232669;202;137777;-45
2024/04/12 11:06:31;;;;;;;12.00;4.20;;;;;;;21.95;37.83;100330.02;232743;202;136832;-44
2024/04/12 11:11:43;;;;;;;7.40;3.10;;;;;;;21.93;37.03;100328.58;232634;205;151847;-44
2024/04/12 11:33:14;;;;;;;8.30;3.30;;;;;;;22.51;37.12;100299.48;232708;202;138671;-45
2024/04/12 11:38:27;;;;;;;7.70;5.00;;;;;;;22.76;36.20;100289.92;232747;201;137972;-42
2024/04/12 11:43:32;;;;;;;8.20;3.70;;;;;;;22.92;35.75;100282.12;232642;198;151149;-43
2024/04/12 11:48:35;;;;;;;10.80;3.10;;;;;;;23.01;34.87;100279.48;232610;203;137942;-44
2024/04/12 11:53:38;;;;;;;8.00;3.20;;;;;;;23.12;34.81;100274.98;232740;202;137705;-44
2024/04/12 11:58:43;;;;;;;9.60;3.50;;;;;;;23.30;34.27;100270.54;232726;202;151490;-46
2024/04/12 12:03:49;;;;;;;;;;;;;;;23.40;33.79;100266.84;232932;205;136717;-44
2024/04/12 12:08:57;;;;;;;7.70;3.30;;;;;;;23.54;33.91;100257.94;232759;205;135742;-45
2024/04/12 12:14:00;;;;;;;8.60;3.40;;;;;;;23.72;33.58;100244.78;232705;198;152630;-45
2024/04/12 12:19:06;;;;;;;78.00;67.70;;;;;;;23.90;33.53;100240.52;232713;202;138007;-43
2024/04/12 12:24:10;;;;;;;12.20;4.40;;;;;;;24.11;33.88;100235.27;232734;201;137630;-44
2024/04/12 12:29:16;;;;;;;9.30;3.50;;;;;;;24.25;33.22;100228.08;232739;205;151508;-44
2024/04/12 12:34:19;;;;;;;7.20;3.30;;;;;;;24.27;32.90;100211.16;232835;201;140417;-46
2024/04/12 12:39:22;;;;;;;10.00;3.10;;;;;;;24.33;33.11;100205.19;232650;202;137350;-44
2024/04/12 12:44:28;;;;;;;12.80;3.60;;;;;;;24.39;32.68;100203.29;232715;205;152673;-46
2024/04/12 12:49:46;;;;;;;7.20;3.40;;;;;;;24.53;33.26;100197.56;232603;205;137858;-46
2024/04/12 12:54:49;;;;;;;7.50;3.20;;;;;;;24.76;32.80;100193.90;232526;202;137614;-46
2024/04/12 12:59:54;;;;;;;8.10;2.80;;;;;;;24.87;33.12;100185.84;232615;199;151543;-47
2024/04/12 13:04:58;;;;;;;6.00;2.80;;;;;;;24.92;32.83;100176.08;232712;202;137453;-57
2024/04/12 13:10:05;;;;;;;7.80;5.60;;;;;;;24.98;32.97;100168.71;232831;205;138052;-49
2024/04/12 13:15:12;;;;;;;8.10;3.30;;;;;;;24.93;32.38;100169.45;232657;203;151799;-47
2024/04/12 13:20:19;;;;;;;11.90;3.00;;;;;;;24.78;31.93;100163.39;232621;205;136786;-47
2024/04/12 13:25:22;;;;;;;7.10;2.50;;;;;;;24.84;32.13;100156.07;232693;205;137190;-49
2024/04/12 13:30:25;;;;;;;8.50;3.20;;;;;;;24.92;32.46;100151.23;232620;202;151066;-47
2024/04/12 13:35:28;;;;;;;111.10;88.00;;;;;;;25.10;33.23;100156.60;232645;201;137705;-46
2024/04/12 13:40:31;;;;;;;30.20;22.00;;;;;;;25.34;32.08;100151.25;232784;205;137995;-48
2024/04/12 13:50:55;;;;;;;8.70;3.40;;;;;;;25.60;31.66;100137.52;232599;201;137529;-57
2024/04/12 14:01:24;;;;;;;10.00;3.40;;;;;;;25.70;31.46;100133.30;232638;201;151038;-57
2024/04/12 14:06:27;;;;;;;70.30;51.30;;;;;;;25.43;31.80;100135.34;232599;201;138056;-58
2024/04/12 14:11:30;;;;;;;9.70;5.80;;;;;;;25.23;32.58;100130.40;232640;202;137172;-57
2024/04/12 14:16:41;;;;;;;7.10;3.00;;;;;;;25.01;31.94;100127.61;232798;198;152335;-58
2024/04/12 14:21:46;;;;;;;8.60;3.30;;;;;;;24.79;32.38;100119.92;232816;197;137770;-57
2024/04/12 14:26:49;;;;;;;6.00;2.70;;;;;;;24.70;33.27;100107.75;232716;201;138259;-58
2024/04/12 14:31:55;;;;;;;11.10;3.30;;;;;;;24.56;33.01;100096.29;232648;204;151103;-54
2024/04/12 14:36:59;;;;;;;8.30;3.20;;;;;;;24.35;33.02;100097.06;232619;201;136619;-56
2024/04/12 14:42:02;;;;;;;15.40;6.50;;;;;;;24.14;32.97;100097.22;232610;198;137835;-56
2024/04/12 14:47:06;;;;;;;15.90;6.20;;;;;;;23.94;33.56;100091.09;232625;202;151326;-55
2024/04/12 14:52:12;;;;;;;8.90;3.00;;;;;;;23.76;33.51;100089.79;232750;197;137582;-55
2024/04/12 14:57:15;;;;;;;8.40;3.00;;;;;;;23.55;33.44;100082.95;232611;201;137036;-54
2024/04/12 15:55:26;;;;;;;10.10;4.50;;;;;;;22.59;36.19;100040.05;232700;202;136866;-54
2024/04/12 16:11:26;;;;;;;22.50;18.40;;;;;;;22.73;35.82;100036.90;232744;198;137321;-49
2024/04/12 16:16:29;;;;;;;8.20;3.60;;;;;;;22.87;35.53;100034.94;232934;201;140919;-50
2024/04/12 16:21:32;;;;;;;7.70;2.90;;;;;;;22.96;35.72;100037.80;232674;201;151343;-49
2024/04/12 16:26:35;;;;;;;8.40;2.70;;;;;;;22.86;35.36;100037.29;232724;198;137765;-62
2024/04/12 16:31:38;;;;;;;9.20;3.00;;;;;;;22.70;35.28;100036.63;232750;205;136930;-60
2024/04/12 16:36:43;;;;;;;10.70;6.00;;;;;;;22.52;35.60;100032.20;232724;204;151974;-59
2024/04/12 16:41:54;;;;;;;11.90;2.60;;;;;;;22.39;35.83;100029.48;232706;201;138197;-60
2024/04/12 16:46:57;;;;;;;41.50;33.90;;;;;;;22.24;36.14;100031.10;232796;202;137976;-59
2024/04/12 16:52:01;;;;;;;5.20;2.90;;;;;;;22.08;36.37;100024.98;232874;201;153054;-57
2024/04/12 16:57:05;;;;;;;7.80;2.70;;;;;;;21.96;36.62;100021.95;232675;205;138125;-44
2024/04/12 17:02:08;;;;;;;6.30;2.20;;;;;;;21.86;36.98;100025.44;232698;201;138007;-48
2024/04/12 17:07:11;;;;;;;270.10;215.50;;;;;;;21.76;37.28;100020.59;232744;201;151878;-55
2024/04/12 17:12:14;;;;;;;68.00;56.20;;;;;;;21.66;37.67;100020.08;232675;201;138814;-54
2024/04/12 17:17:17;;;;;;;9.50;4.40;;;;;;;21.59;38.01;100021.10;232727;205;137714;-54
2024/04/12 17:22:20;;;;;;;10.70;2.70;;;;;;;21.45;37.95;100021.09;232797;202;151852;-53
2024/04/12 17:27:23;;;;;;;10.50;2.80;;;;;;;21.30;38.28;100020.27;232618;197;137936;-53
2024/04/12 17:32:36;;;;;;;9.30;2.30;;;;;;;21.17;38.61;100022.52;232619;201;137856;-53
2024/04/12 17:37:39;;;;;;;11.80;3.00;;;;;;;21.08;38.85;100019.58;232670;202;151460;-53
2024/04/12 17:42:42;;;;;;;12.40;4.40;;;;;;;20.99;39.16;100020.16;232661;201;138363;-54
2024/04/12 17:47:45;;;;;;;12.70;3.20;;;;;;;20.90;39.37;100015.95;232725;205;138972;-54
2024/04/12 17:52:50;;;;;;;50.10;35.50;;;;;;;20.81;39.89;100014.94;232650;201;151152;-54
2024/04/12 17:57:53;;;;;;;7.80;3.40;;;;;;;20.73;40.04;100016.70;232816;201;138600;-56
2024/04/12 18:02:57;;;;;;;15.00;3.40;;;;;;;20.64;40.45;100013.81;232694;201;137766;-58
2024/04/12 18:08:01;;;;;;;9.00;3.10;;;;;;;20.50;40.77;100016.02;232686;205;152771;-57
2024/04/12 18:13:05;;;;;;;13.70;3.60;;;;;;;20.37;41.37;100016.95;232694;201;139805;-58
2024/04/12 18:18:08;;;;;;;14.60;4.40;;;;;;;20.22;41.73;100020.83;232605;201;137694;-58
2024/04/12 18:23:12;;;;;;;57.40;35.70;;;;;;;20.14;42.09;100028.76;232627;205;151463;-56
2024/04/12 18:28:15;;;;;;;21.00;6.50;;;;;;;20.07;43.04;100031.16;232845;201;137544;-57
2024/04/12 18:33:20;;;;;;;10.70;5.00;;;;;;;19.98;43.03;100028.33;232761;202;138648;-57
2024/04/12 18:49:10;;;;;;;13.20;4.50;;;;;;;19.74;43.46;100033.03;232765;204;137790;-57
2024/04/12 18:54:13;;;;;;;14.70;4.30;;;;;;;19.66;43.60;100032.08;232687;205;151704;-57
2024/04/12 18:59:16;;;;;;;13.00;4.60;;;;;;;19.58;43.83;100036.28;232730;201;138168;-57
2024/04/12 19:04:18;;;;;;;16.80;5.00;;;;;;;19.53;44.13;100044.67;232892;205;137311;-58
2024/04/12 19:09:21;;;;;;;115.10;94.70;;;;;;;19.50;44.69;100042.60;232718;201;151152;-59
2024/04/12 19:14:25;;;;;;;24.20;8.30;;;;;;;19.53;44.70;100038.14;232699;197;137688;-59
2024/04/12 19:19:27;;;;;;;14.60;5.10;;;;;;;19.50;44.65;100038.21;232736;201;137493;-58
2024/04/12 19:24:30;;;;;;;15.70;5.40;;;;;;;19.45;44.77;100040.47;232640;201;151320;-57
2024/04/12 19:29:34;;;;;;;15.00;5.10;;;;;;;19.37;44.91;100035.04;232671;204;137996;-58
2024/04/12 19:34:38;;;;;;;13.00;4.90;;;;;;;19.30;44.92;100032.73;232891;201;137081;-58
2024/04/12 19:39:43;;;;;;;12.20;4.80;;;;;;;19.24;45.20;100031.62;232732;202;151568;-55
2024/04/12 19:44:46;;;;;;;10.90;4.80;;;;;;;19.14;45.29;100029.67;232678;202;138722;-55
2024/04/12 19:49:52;;;;;;;12.10;4.30;;;;;;;19.08;45.52;100020.83;232300;201;137937;-56
2024/04/12 19:54:55;;;;;;;11.20;4.50;;;;;;;19.02;45.43;100013.61;232651;205;151992;-58
2024/04/12 19:59:58;;;;;;;13.40;5.20;;;;;;;18.96;45.64;100014.10;232687;201;137676;-57
2024/04/12 20:05:01;;;;;;;17.90;5.60;;;;;;;18.92;45.78;100015.34;232787;201;141659;-57
2024/04/12 20:10:09;;;;;;;11.10;5.50;;;;;;;18.87;46.00;100013.69;232925;201;151999;-57
2024/04/12 20:15:19;;;;;;;17.10;5.50;;;;;;;18.81;46.10;100010.81;232684;201;137169;-55
2024/04/12 20:20:33;;;;;;;13.80;5.60;;;;;;;18.71;46.40;100008.90;232630;205;138071;-56
2024/04/12 20:25:36;;;;;;;12.10;6.00;;;;;;;18.63;46.50;100003.61;232531;205;151400;-57
2024/04/12 20:30:58;;;;;;;15.80;5.60;;;;;;;18.53;46.88;100000.42;232484;202;136817;-55
2024/04/12 20:36:17;;;;;;;17.20;6.10;;;;;;;18.41;47.15;99999.27;232421;199;138337;-56
2024/04/12 20:41:20;;;;;;;16.30;5.50;;;;;;;18.29;48.13;100001.67;232462;202;151466;-57
2024/04/12 20:46:23;;;;;;;14.20;5.70;;;;;;;18.19;48.63;100005.42;232624;202;138118;-58
2024/04/12 20:51:27;;;;;;;21.00;6.30;;;;;;;18.07;49.42;99999.05;232598;202;137301;-56
2024/04/12 20:56:31;;;;;;;18.00;5.80;;;;;;;17.91;50.15;100001.57;232435;202;153225;-56
2024/04/12 21:01:46;;;;;;;14.20;7.00;;;;;;;17.77;50.15;100001.88;232424;202;138298;-57
2024/04/12 21:06:52;;;;;;;16.10;6.90;;;;;;;17.71;49.85;99997.96;232414;198;137879;-55
2024/04/12 21:11:56;;;;;;;16.60;7.10;;;;;;;17.70;50.07;99999.52;232416;203;151270;-55
2024/04/12 21:17:01;;;;;;;17.10;6.70;;;;;;;17.67;50.28;100002.58;232381;202;138310;-55
2024/04/12 21:22:04;;;;;;;14.90;6.60;;;;;;;17.64;50.28;99993.02;232656;201;137206;-55
2024/04/12 21:27:07;;;;;;;15.00;7.40;;;;;;;17.60;50.44;99990.05;232477;203;152424;-54
2024/04/12 21:32:10;;;;;;;18.60;6.70;;;;;;;17.56;50.67;99988.08;232477;203;136965;-56
2024/04/12 21:37:13;;;;;;;17.00;7.00;;;;;;;17.52;50.82;99984.53;232452;203;137824;-57
2024/04/12 21:42:16;;;;;;;14.70;7.30;;;;;;;17.52;50.90;99984.41;232482;205;152033;-56
2024/04/12 21:47:20;;;;;;;15.60;7.20;;;;;;;17.43;51.86;99984.85;232473;201;138003;-56
2024/04/12 21:52:23;;;;;;;13.10;6.80;;;;;;;17.31;52.27;99979.31;232639;203;137076;-56
2024/04/12 21:57:26;;;;;;;17.90;7.70;;;;;;;17.15;53.08;99977.30;232327;202;153028;-56
2024/04/12 22:02:29;;;;;;;13.30;7.30;;;;;;;16.97;53.61;99977.33;232493;205;137691;-56
2024/04/12 22:07:32;;;;;;;12.80;7.00;;;;;;;16.81;54.04;99978.89;232426;202;137759;-55
2024/04/12 22:12:35;;;;;;;14.90;7.90;;;;;;;16.73;53.92;99977.31;232403;202;152092;-55
2024/04/12 22:17:39;;;;;;;16.30;8.10;;;;;;;16.71;53.64;99974.56;232408;198;138674;-56
2024/04/12 22:22:42;;;;;;;13.70;8.30;;;;;;;16.67;53.53;99968.26;232607;198;138080;-56
2024/04/12 22:27:46;;;;;;;16.90;8.90;;;;;;;16.62;53.67;99962.89;232559;205;151439;-57
2024/04/12 22:32:48;;;;;;;20.50;8.70;;;;;;;16.55;53.93;99967.64;232433;202;137146;-56
2024/04/12 22:37:54;;;;;;;18.10;9.10;;;;;;;16.50;54.12;99964.09;232392;201;137775;-59
2024/04/12 22:42:59;;;;;;;20.60;9.10;;;;;;;16.45;54.28;99959.96;232407;202;151483;-57
2024/04/12 22:48:05;;;;;;;27.20;9.70;;;;;;;16.42;54.38;99958.19;231957;202;137368;-56
2024/04/12 22:53:13;;;;;;;21.70;10.00;;;;;;;16.39;54.52;99958.09;232502;202;137924;-57
2024/04/12 22:58:16;;;;;;;23.70;11.10;;;;;;;16.36;54.66;99959.34;232637;202;151174;-56
2024/04/12 23:03:19;;;;;;;20.90;10.80;;;;;;;16.37;54.61;99956.98;232585;202;140832;-57
2024/04/12 23:08:22;;;;;;;25.00;11.30;;;;;;;16.34;54.82;99957.34;232552;202;137878;-57
2024/04/12 23:13:24;;;;;;;17.50;10.60;;;;;;;16.31;54.95;99958.64;232405;199;153046;-57
2024/04/12 23:18:27;;;;;;;16.80;10.30;;;;;;;16.27;54.98;99957.09;232421;203;139834;-57
2024/04/12 23:23:30;;;;;;;16.90;10.20;;;;;;;16.24;55.10;99955.00;232472;202;141243;-58
2024/04/12 23:28:33;;;;;;;19.40;10.20;;;;;;;16.20;55.09;99954.77;232574;205;151149;-56
2024/04/12 23:33:36;;;;;;;19.30;10.10;;;;;;;16.20;55.08;99951.16;232451;202;137678;-63
2024/04/12 23:38:39;;;;;;;19.90;10.10;;;;;;;16.15;55.07;99954.20;232490;202;137423;-56
2024/04/12 23:43:42;;;;;;;17.50;9.40;;;;;;;16.13;55.16;99951.50;232508;205;152197;-58
2024/04/12 23:48:45;;;;;;;22.60;10.80;;;;;;;16.09;55.23;99949.95;232412;205;137208;-57
2024/04/12 23:53:48;;;;;;;15.40;10.10;;;;;;;16.07;55.17;99950.41;232485;205;140953;-57
2024/04/12 23:58:51;;;;;;;16.70;10.30;;;;;;;16.06;55.24;99947.86;232634;205;151671;-56
